< Cyclone 201414 2014 Season Cyclone 201416 >
Cyclone 201415 (Ita)
General InformationDetailed Track InformationTrack Information on Google MapsList of All Images || ResourceGoogle EarthGE AnimationAtom FeedGeoJSON
Detalied Best Track Wind (Time Zone = UTC)
Year Month Day Hour Lat. Long. Wind (kt) Gust (kt) Direc. of Major Storm Axis Radius of Major Storm Axis (nm) Radius of Minor Storm Axis (nm) Direc. of Major Gale Axis Radius of Major Gale Axis (nm) Radius of Minor Gale Axis (nm) Image
2014 4 2 00 -10.5 158.9 0 -1 symmetric - - symmetric - - Image
2014 4 2 06 -10.3 159.0 0 -1 symmetric - - symmetric - - Image
2014 4 2 12 -10.1 158.7 0 -1 symmetric - - symmetric - - Image
2014 4 2 18 -10.2 158.6 0 -1 symmetric - - symmetric - - Image
2014 4 3 00 -10.8 158.8 25 45 symmetric - - symmetric - - Image
2014 4 3 06 -10.9 158.8 25 45 symmetric - - symmetric - - Image
2014 4 3 12 -10.4 158.5 25 45 symmetric - - symmetric - - Image
2014 4 3 18 -10.3 158.3 25 45 symmetric - - symmetric - - Image
2014 4 4 00 -10.9 158.0 30 45 symmetric - - symmetric - - Image
2014 4 4 06 -11.3 156.9 30 45 symmetric - - symmetric - - Image
2014 4 4 12 -11.4 156.8 30 45 symmetric - - symmetric - - Image
2014 4 4 18 -11.5 156.7 30 45 symmetric - - symmetric - - Image
2014 4 5 00 -11.7 156.3 30 45 symmetric - - symmetric - - Image
2014 4 5 06 -11.7 156.2 30 45 symmetric - - symmetric - - Image
2014 4 5 12 -11.9 155.8 35 50 symmetric - - symmetric - - Image
2014 4 5 18 -12.1 154.9 35 50 symmetric - - symmetric - - Image
2014 4 6 00 -12.0 154.4 35 50 symmetric - - symmetric - - Image
2014 4 6 06 -12.1 154.2 35 50 symmetric - - symmetric - - Image
2014 4 6 12 -12.0 153.9 35 50 symmetric - - symmetric - - Image
2014 4 6 18 -12.2 153.6 35 50 symmetric - - symmetric - - Image
2014 4 7 00 -12.2 153.3 40 55 symmetric - - symmetric - - Image
2014 4 7 06 -11.8 153.3 50 70 symmetric - - symmetric - - Image
2014 4 7 12 -11.7 153.4 50 70 symmetric - - symmetric - - Image
2014 4 7 18 -11.7 153.4 60 85 symmetric - - symmetric - - Image
2014 4 8 00 -11.7 153.4 65 90 symmetric - - symmetric - - Image
2014 4 8 06 -11.7 152.9 65 90 symmetric - - symmetric - - Image
2014 4 8 12 -11.6 152.5 65 90 symmetric - - symmetric - - Image
2014 4 8 18 -11.5 151.8 80 110 symmetric - - symmetric - - Image
2014 4 9 00 -11.4 151.4 80 110 symmetric - - symmetric - - Image
2014 4 9 06 -11.2 150.2 80 110 symmetric - - symmetric - - Image
2014 4 9 12 -11.3 149.3 85 120 symmetric - - symmetric - - Image
2014 4 9 18 -11.4 148.7 85 120 symmetric - - symmetric - - Image
2014 4 10 00 -12.0 147.9 85 120 symmetric - - symmetric - - Image
2014 4 10 06 -12.5 147.0 110 155 symmetric - - symmetric - - Image
2014 4 10 12 -12.7 146.3 110 155 symmetric - - symmetric - - Image
2014 4 10 18 -13.2 145.9 115 160 symmetric - - symmetric - - Image
2014 4 11 00 -13.6 145.8 115 160 symmetric - - symmetric - - Image
2014 4 11 06 -14.3 145.5 115 160 symmetric - - symmetric - - Image
2014 4 11 12 -14.9 145.3 85 120 symmetric - - symmetric - - Image
2014 4 11 18 -15.4 145.0 55 75 symmetric - - symmetric - - Image
2014 4 12 00 -16.0 145.0 45 65 symmetric - - symmetric - - Image
2014 4 12 06 -16.4 145.4 45 65 symmetric - - symmetric - - Image
2014 4 12 12 -17.1 145.7 40 55 symmetric - - symmetric - - Image
2014 4 12 18 -18.2 146.1 40 55 symmetric - - symmetric - - Image
2014 4 13 00 -19.1 147.0 40 55 symmetric - - symmetric - - Image
2014 4 13 06 -20.0 148.4 35 50 symmetric - - symmetric - - Image
2014 4 13 12 -20.7 150.2 40 55 symmetric - - symmetric - - Image
2014 4 13 18 -21.7 151.8 45 65 symmetric - - symmetric - - Image
2014 4 14 00 -22.2 152.8 45 65 symmetric - - symmetric - - Image
2014 4 14 06 -23.6 155.1 50 70 symmetric - - symmetric - - Image
2014 4 14 12 -24.5 156.8 0 -1 symmetric - - symmetric - - Image
< Cyclone 201414 2014 Season Cyclone 201416 >

Help